Yucaipa, CA (92399)

9:43 AM PST on December 04, 2016 (GMT -0800)
Panorama Dr. | | Change Station

Elev 3114 ft 34.04 °N, 117.02 °W | Updated 1 minute ago

Clear
Clear
62.1 °F
Feels Like 62.1 °F
N
0.0
Wind Variable Wind from WSW
Gusts 2.0 mph

Today
High -- | Low -- °F
--% Chance of Precip.
Yesterday
High -- | Low -- °F
Precip. -- in
Pressure 30.10 in
Visibility 10.0 miles
Clouds Clear
Dew Point 14 °F
Humidity 15%
Rainfall 0.00 in
Snow Depth Not available.
6:38 AM 4:38 PM
Waxing Crescent, 24% visible
METAR KSBD 041738Z AUTO 00000KT 10SM CLR 16/M03 A3010 RMK AO2 T01611030
Pressure 30.10 in
Visibility 10.0 miles
Clouds Clear
Dew Point 14 °F
Humidity 15%
Rainfall 0.00 in
Snow Depth Not available.
6:38 AM 4:38 PM
Waxing Crescent, 24% visible
METAR KSBD 041738Z AUTO 00000KT 10SM CLR 16/M03 A3010 RMK AO2 T01611030

10-Day Weather Forecast

Almanac

Astronomy

Dec. 04, 2016 Rise Set
Actual Time
Civil Twilight
Nautical Twilight
Astronomical Twilight
Moon
Length of Visible Light
Length of Day
Tomorrow will be .
, % of the Moon is Illuminated

Today's Extremes

State Highs State Lows

Community

WunderPhotos

Upload Photos

1,955,635 photos uploaded!

WunderBlog® & News

Nearby

Air Quality

  Air Quality AQ Index Pollutant
Not available.

Snow Depth

Station Depth Elevation

Earthquake Activity

City Distance Mag. Time & Date
Minimum magnitude displayed is 2.5.

Coastal Water Temperatures

Place Temperature

Stations

Nearby Weather Stations

Station Location Temp. Windchill Dew Point Humidity Wind Precip. Elev Updated Type
                   

Watches & Warnings

There are currently no watches in effect.